createdAt,value
2019-06-10T00:01:24.447Z,3.23
2019-06-10T00:03:53.746Z,3.00
2019-06-10T00:06:23.077Z,2.70
2019-06-10T00:08:53.359Z,2.70
2019-06-10T00:11:22.698Z,3.10
2019-06-10T00:13:52.094Z,3.17
2019-06-10T00:16:21.420Z,3.17
2019-06-10T00:18:51.140Z,3.60
2019-06-10T00:21:21.820Z,3.23
2019-06-10T00:23:51.871Z,3.37
2019-06-10T00:26:21.723Z,3.43
2019-06-10T00:28:51.454Z,3.13
2019-06-10T00:31:20.963Z,3.10
2019-06-10T00:33:51.993Z,3.43
2019-06-10T00:36:21.645Z,3.27
2019-06-10T00:38:51.696Z,3.57
2019-06-10T00:41:21.881Z,3.37
2019-06-10T00:43:51.805Z,3.20
2019-06-10T00:46:22.330Z,3.57
2019-06-10T00:48:51.708Z,3.90
2019-06-10T00:51:21.147Z,3.90
2019-06-10T00:53:51.598Z,3.93
2019-06-10T00:56:21.646Z,3.70
2019-06-10T00:58:51.664Z,4.10
2019-06-10T01:01:22.132Z,3.50
2019-06-10T01:03:51.450Z,4.47
2019-06-10T01:06:21.493Z,3.70
2019-06-10T01:08:51.826Z,3.90
2019-06-10T01:11:26.614Z,4.17
2019-06-10T01:13:52.164Z,3.70
2019-06-10T01:16:21.855Z,4.03
2019-06-10T01:18:53.580Z,4.33
2019-06-10T01:21:22.307Z,4.10
2019-06-10T01:23:51.612Z,4.53
2019-06-10T01:26:21.673Z,4.10
2019-06-10T01:28:51.689Z,4.40
2019-06-10T01:31:24.210Z,4.57
2019-06-10T01:33:52.201Z,4.83
2019-06-10T01:36:21.533Z,4.50
2019-06-10T01:38:51.295Z,4.40
2019-06-10T01:41:21.420Z,5.20
2019-06-10T01:43:51.361Z,4.40
2019-06-10T01:46:21.280Z,4.70
2019-06-10T01:48:52.160Z,4.93
2019-06-10T01:51:21.735Z,4.43
2019-06-10T01:53:51.548Z,4.70
2019-06-10T01:56:21.558Z,4.67
2019-06-10T01:58:51.458Z,4.47
2019-06-10T02:01:23.621Z,4.67
2019-06-10T02:03:53.993Z,4.63
2019-06-10T02:06:25.614Z,4.63
2019-06-10T02:08:55.961Z,4.93
2019-06-10T02:11:25.294Z,4.90
2019-06-10T02:13:54.599Z,4.20
2019-06-10T02:16:24.221Z,4.87
2019-06-10T02:19:00.478Z,4.87
2019-06-10T02:21:26.149Z,4.77
2019-06-10T02:23:55.446Z,4.80
2019-06-10T02:26:24.776Z,4.90
2019-06-10T02:28:54.083Z,5.10
2019-06-10T02:31:30.241Z,5.00
2019-06-10T02:33:54.427Z,4.97
2019-06-10T02:36:31.302Z,5.00
2019-06-10T02:38:54.824Z,4.90
2019-06-10T02:41:31.852Z,4.63
2019-06-10T02:43:55.152Z,4.97
2019-06-10T02:46:30.824Z,5.30
2019-06-10T02:48:55.502Z,4.93
2019-06-10T02:51:30.788Z,5.10
2019-06-10T02:53:55.985Z,5.13
2019-06-10T02:56:30.744Z,5.20
2019-06-10T02:58:56.566Z,5.10
2019-06-10T03:01:30.777Z,4.77
2019-06-10T03:03:56.935Z,5.07
2019-06-10T03:06:33.406Z,5.73
2019-06-10T03:08:57.276Z,4.70
2019-06-10T03:11:30.574Z,5.07
2019-06-10T03:13:57.613Z,5.07
2019-06-10T03:16:28.558Z,4.87
2019-06-10T03:18:57.894Z,5.03
2019-06-10T03:21:28.436Z,5.63
2019-06-10T03:23:57.830Z,4.80
2019-06-10T03:26:28.202Z,4.97
2019-06-10T03:28:57.527Z,5.50
2019-06-10T03:31:33.904Z,4.83
2019-06-10T03:33:57.861Z,5.27
2019-06-10T03:36:27.372Z,5.20
2019-06-10T03:38:58.268Z,5.80
2019-06-10T03:41:28.007Z,5.00
2019-06-10T03:43:58.032Z,5.77
2019-06-10T03:46:28.471Z,5.90
2019-06-10T03:48:58.347Z,5.37
2019-06-10T03:51:28.635Z,5.20
2019-06-10T03:53:58.565Z,5.43
2019-06-10T03:56:28.216Z,5.43
2019-06-10T03:58:57.684Z,5.73
2019-06-10T04:01:29.971Z,5.93
2019-06-10T04:03:58.011Z,6.60
2019-06-10T04:06:28.715Z,6.03
2019-06-10T04:08:58.343Z,5.73
2019-06-10T04:11:28.519Z,5.27
2019-06-10T04:13:58.759Z,5.90
2019-06-10T04:16:28.369Z,6.20
2019-06-10T04:18:57.671Z,5.80
2019-06-10T04:21:28.352Z,6.53
2019-06-10T04:23:57.681Z,6.20
2019-06-10T04:26:28.553Z,6.33
2019-06-10T04:28:58.972Z,6.23
2019-06-10T04:31:29.779Z,6.50
2019-06-10T04:33:59.150Z,6.10
2019-06-10T04:36:29.433Z,6.27
2019-06-10T04:38:58.869Z,6.00
2019-06-10T04:41:29.190Z,6.00
2019-06-10T04:43:58.571Z,5.73
2019-06-10T04:46:29.534Z,5.87
2019-06-10T04:48:58.884Z,5.77
2019-06-10T04:51:29.700Z,5.63
2019-06-10T04:53:59.347Z,5.63
2019-06-10T04:56:29.330Z,6.10
2019-06-10T04:58:59.762Z,5.57
2019-06-10T05:01:30.174Z,5.80
2019-06-10T05:04:00.076Z,5.73
2019-06-10T05:06:29.797Z,5.67
2019-06-10T05:08:59.188Z,5.70
2019-06-10T05:11:29.894Z,6.27
2019-06-10T05:13:59.513Z,5.63
2019-06-10T05:16:30.854Z,5.53
2019-06-10T05:18:59.910Z,5.40
2019-06-10T05:21:29.784Z,5.73
2019-06-10T05:24:00.229Z,5.73
2019-06-10T05:26:33.649Z,5.73
2019-06-10T05:29:03.142Z,6.20
2019-06-10T05:31:35.098Z,5.47
2019-06-10T05:34:03.637Z,5.30
2019-06-10T05:36:34.748Z,6.17
2019-06-10T05:39:05.603Z,5.60
2019-06-10T05:41:35.334Z,6.20
2019-06-10T05:44:04.693Z,5.63
2019-06-10T05:46:35.028Z,5.63
2019-06-10T05:49:04.678Z,5.70
2019-06-10T05:51:35.441Z,5.83
2019-06-10T05:54:04.939Z,5.53
2019-06-10T05:56:35.724Z,5.70
2019-06-10T05:59:05.212Z,5.83
2019-06-10T06:01:37.950Z,5.67
2019-06-10T06:04:05.539Z,5.40
2019-06-10T06:06:35.441Z,5.50
2019-06-10T06:09:06.850Z,6.03
2019-06-10T06:11:36.179Z,5.43
2019-06-10T06:14:05.552Z,6.20
2019-06-10T06:16:36.236Z,6.47
2019-06-10T06:19:05.659Z,5.80
2019-06-10T06:21:41.832Z,5.97
2019-06-10T06:24:06.137Z,6.40
2019-06-10T06:26:38.367Z,6.03
2019-06-10T06:29:07.455Z,6.20
2019-06-10T06:31:37.698Z,6.60
2019-06-10T06:34:07.200Z,6.40
2019-06-10T06:36:38.213Z,6.13
2019-06-10T06:39:08.253Z,6.50
2019-06-10T06:41:38.946Z,6.00
2019-06-10T06:44:08.506Z,6.30
2019-06-10T06:46:39.610Z,5.83
2019-06-10T06:49:08.836Z,6.60
2019-06-10T06:51:51.934Z,6.30
2019-06-10T06:54:09.183Z,6.80
2019-06-10T06:56:39.289Z,6.70
2019-06-10T06:59:09.499Z,5.93
2019-06-10T07:01:39.554Z,6.67
2019-06-10T07:04:09.905Z,6.53
2019-06-10T07:06:42.585Z,6.80
2019-06-10T07:09:13.459Z,6.60
2019-06-10T07:11:45.135Z,6.90
2019-06-10T07:14:13.862Z,6.63
2019-06-10T07:16:45.979Z,7.00
2019-06-10T07:19:14.200Z,6.07
2019-06-10T07:22:02.576Z,6.27
2019-06-10T07:24:14.528Z,6.47
2019-06-10T07:26:51.021Z,6.37
2019-06-10T07:29:15.821Z,6.33
2019-06-10T07:31:49.299Z,7.27
2019-06-10T07:34:16.152Z,7.10
2019-06-10T07:36:45.603Z,6.73
2019-06-10T07:39:14.957Z,6.63
2019-06-10T07:41:47.771Z,6.97
2019-06-10T07:44:15.308Z,6.57
2019-06-10T07:46:45.689Z,6.27
2019-06-10T07:49:15.148Z,6.07
2019-06-10T07:51:46.267Z,6.40
2019-06-10T07:54:15.481Z,6.70
2019-06-10T07:56:50.314Z,6.27
2019-06-10T07:59:15.815Z,7.10
2019-06-10T08:01:51.343Z,6.53
2019-06-10T08:04:17.298Z,6.87
2019-06-10T08:06:49.744Z,6.33
2019-06-10T08:09:17.635Z,6.30
2019-06-10T08:11:48.665Z,6.70
2019-06-10T08:14:18.172Z,6.80
2019-06-10T08:16:48.638Z,6.60
2019-06-10T08:19:33.811Z,6.80
2019-06-10T08:21:49.622Z,6.15
2019-06-10T08:24:18.975Z,6.53
2019-06-10T08:26:48.280Z,6.17
2019-06-10T08:29:17.608Z,6.53
2019-06-10T08:31:49.538Z,6.83
2019-06-10T08:34:17.956Z,6.53
2019-06-10T08:36:50.580Z,6.53
2019-06-10T08:39:18.280Z,6.83
2019-06-10T08:41:49.202Z,7.08
2019-06-10T08:44:19.950Z,6.78
2019-06-10T08:46:49.269Z,6.15
2019-06-10T08:49:18.567Z,6.55
2019-06-10T08:51:50.075Z,7.20
2019-06-10T08:54:18.919Z,6.58
2019-06-10T08:56:50.961Z,6.62
2019-06-10T08:59:20.310Z,6.78
2019-06-10T09:01:55.697Z,7.08
2019-06-10T09:04:22.712Z,6.70
2019-06-10T09:06:53.766Z,7.28
2019-06-10T09:09:22.694Z,6.47
2019-06-10T09:11:54.647Z,6.90
2019-06-10T09:14:23.553Z,6.30
2019-06-10T09:16:54.509Z,6.97
2019-06-10T09:19:24.962Z,6.72
2019-06-10T09:21:56.400Z,6.37
2019-06-10T09:24:27.186Z,6.40
2019-06-10T09:26:56.496Z,6.58
2019-06-10T09:29:25.831Z,6.33
2019-06-10T09:31:56.398Z,6.22
2019-06-10T09:34:25.729Z,6.75
2019-06-10T09:36:56.878Z,6.47
2019-06-10T09:39:26.092Z,6.95
2019-06-10T09:42:02.290Z,6.72
2019-06-10T09:44:26.413Z,6.90
2019-06-10T09:46:58.166Z,6.78
2019-06-10T09:49:27.674Z,6.62
2019-06-10T09:51:57.757Z,7.03
2019-06-10T09:54:27.255Z,6.87
2019-06-10T09:56:56.557Z,7.10
2019-06-10T09:59:25.878Z,6.30
2019-06-10T10:01:58.926Z,6.65
2019-06-10T10:04:26.304Z,7.62
2019-06-10T10:06:57.436Z,6.80
2019-06-10T10:09:26.646Z,6.80
2019-06-10T10:11:56.229Z,7.03
2019-06-10T10:14:25.764Z,6.85
2019-06-10T10:17:00.311Z,6.83
2019-06-10T10:19:26.167Z,7.30
2019-06-10T10:21:58.341Z,6.72
2019-06-10T10:24:26.505Z,6.62
2019-06-10T10:26:58.650Z,7.20
2019-06-10T10:29:26.840Z,7.00
2019-06-10T10:31:56.150Z,7.25
2019-06-10T10:34:33.386Z,7.42
2019-06-10T10:37:03.031Z,7.83
2019-06-10T10:39:32.832Z,8.40
2019-06-10T10:42:03.325Z,8.63
2019-06-10T10:44:33.301Z,7.30
2019-06-10T10:47:03.637Z,8.23
2019-06-10T10:49:33.141Z,8.35
2019-06-10T10:52:03.510Z,8.83
2019-06-10T10:54:36.632Z,8.65
2019-06-10T10:57:03.847Z,8.63
2019-06-10T10:59:33.374Z,7.60
2019-06-10T11:02:02.654Z,8.78
2019-06-10T11:04:32.909Z,8.93
2019-06-10T11:07:02.424Z,8.33
2019-06-10T11:09:33.081Z,8.55
2019-06-10T11:12:03.536Z,7.85
2019-06-10T11:14:34.135Z,7.10
2019-06-10T11:17:03.605Z,7.92
2019-06-10T11:19:33.059Z,6.72
2019-06-10T11:22:03.151Z,7.08
2019-06-10T11:24:40.168Z,7.25
2019-06-10T11:27:03.961Z,7.70
2019-06-10T11:29:33.270Z,7.00
2019-06-10T11:32:03.214Z,6.70
2019-06-10T11:34:33.582Z,6.72
2019-06-10T11:37:02.952Z,6.50
2019-06-10T11:39:33.284Z,6.53
2019-06-10T11:42:03.986Z,6.42
2019-06-10T11:44:34.034Z,6.40
2019-06-10T11:47:03.931Z,6.83
2019-06-10T11:49:33.310Z,6.80
2019-06-10T11:52:03.195Z,6.62
2019-06-10T11:54:47.878Z,6.90
2019-06-10T11:57:04.775Z,6.12
2019-06-10T11:59:34.081Z,6.17
2019-06-10T12:02:06.026Z,6.47
2019-06-10T12:04:34.441Z,6.60
2019-06-10T12:07:03.747Z,6.53
2019-06-10T12:09:33.477Z,5.87
2019-06-10T12:12:04.503Z,6.53
2019-06-10T12:14:34.007Z,6.22
2019-06-10T12:17:21.850Z,7.10
2019-06-10T12:19:34.353Z,6.40
2019-06-10T12:22:07.331Z,6.75
2019-06-10T12:24:34.767Z,6.62
2019-06-10T12:27:05.120Z,6.97
2019-06-10T12:29:35.733Z,6.50
2019-06-10T12:32:07.132Z,6.10
2019-06-10T12:34:37.117Z,6.53
2019-06-10T12:37:11.349Z,6.10
2019-06-10T12:39:37.460Z,6.80
2019-06-10T12:42:06.941Z,6.17
2019-06-10T12:44:36.285Z,5.97
2019-06-10T12:47:07.922Z,6.28
2019-06-10T12:49:36.629Z,6.12
2019-06-10T12:52:07.555Z,6.58
2019-06-10T12:54:37.139Z,6.10
2019-06-10T12:57:06.938Z,6.50
2019-06-10T12:59:37.630Z,5.55
2019-06-10T13:02:21.361Z,5.55
2019-06-10T13:04:38.944Z,5.15
2019-06-10T13:07:12.428Z,5.33
2019-06-10T13:09:43.314Z,6.62
2019-06-10T13:12:13.077Z,4.58
2019-06-10T13:14:43.632Z,4.70
2019-06-10T13:17:13.141Z,4.37
2019-06-10T13:19:43.505Z,5.33
2019-06-10T13:22:12.938Z,5.67
2019-06-10T13:24:42.531Z,5.08
2019-06-10T13:27:11.923Z,5.45
2019-06-10T13:29:43.640Z,5.03
2019-06-10T13:32:12.253Z,4.92
2019-06-10T13:34:42.416Z,5.25
2019-06-10T13:37:16.156Z,5.35
2019-06-10T13:39:43.861Z,4.97
2019-06-10T13:42:14.399Z,5.37
2019-06-10T13:44:44.838Z,5.70
2019-06-10T13:47:15.766Z,5.37
2019-06-10T13:49:45.082Z,22.00
2019-06-10T13:52:16.751Z,5.90
2019-06-10T13:54:46.468Z,5.03
2019-06-10T13:57:15.770Z,5.42
2019-06-10T13:59:46.436Z,4.92
2019-06-10T14:02:16.033Z,4.75
2019-06-10T14:04:45.358Z,4.50
2019-06-10T14:07:17.246Z,5.10
2019-06-10T14:09:45.648Z,4.72
2019-06-10T14:12:17.307Z,4.90
2019-06-10T14:14:45.962Z,5.00
2019-06-10T14:17:19.121Z,5.67
2019-06-10T14:19:46.268Z,4.75
2019-06-10T14:22:16.177Z,4.80
2019-06-10T14:24:45.763Z,4.30
2019-06-10T14:27:18.144Z,4.40
2019-06-10T14:29:46.161Z,4.60
2019-06-10T14:32:15.850Z,4.30
2019-06-10T14:34:45.419Z,4.30
2019-06-10T14:37:15.635Z,4.83
2019-06-10T14:39:45.746Z,4.47
2019-06-10T14:42:16.322Z,4.42
2019-06-10T14:44:45.722Z,4.75
2019-06-10T14:47:16.711Z,4.83
2019-06-10T14:49:46.219Z,4.70
2019-06-10T14:52:16.933Z,4.20
2019-06-10T14:54:46.518Z,4.80
2019-06-10T14:57:16.856Z,5.20
2019-06-10T14:59:46.314Z,5.80
2019-06-10T15:02:17.049Z,4.92
2019-06-10T15:04:46.817Z,4.55
2019-06-10T15:07:16.126Z,4.80
2019-06-10T15:09:45.441Z,6.70
2019-06-10T15:12:17.159Z,5.85
2019-06-10T15:14:45.806Z,4.67
2019-06-10T15:17:16.664Z,5.10
2019-06-10T15:19:47.181Z,4.50
2019-06-10T15:22:17.273Z,4.55
2019-06-10T15:24:46.596Z,4.50
2019-06-10T15:27:24.740Z,5.45
2019-06-10T15:29:47.144Z,4.80
2019-06-10T15:32:29.772Z,5.10
2019-06-10T15:34:47.554Z,5.22
2019-06-10T15:37:18.750Z,5.00
2019-06-10T15:39:47.887Z,5.00
2019-06-10T15:42:17.827Z,4.70
2019-06-10T15:44:52.570Z,5.22
2019-06-10T15:47:21.006Z,5.65
2019-06-10T15:49:52.405Z,4.72
2019-06-10T15:52:24.791Z,5.10
2019-06-10T15:54:52.579Z,4.55
2019-06-10T15:57:34.627Z,5.17
2019-06-10T15:59:53.551Z,5.20
2019-06-10T16:02:25.503Z,5.47
2019-06-10T16:04:53.904Z,4.72
2019-06-10T16:07:25.470Z,4.80
2019-06-10T16:09:54.234Z,5.55
2019-06-10T16:12:26.550Z,5.12
2019-06-10T16:14:54.570Z,5.28
2019-06-10T16:17:23.881Z,5.25
2019-06-10T16:19:54.215Z,5.10
2019-06-10T16:22:25.869Z,5.25
2019-06-10T16:24:54.549Z,4.75
2019-06-10T16:27:43.212Z,5.20
2019-06-10T16:29:54.908Z,4.17
2019-06-10T16:32:26.404Z,4.42
2019-06-10T16:34:55.248Z,4.58
2019-06-10T16:37:25.771Z,4.55
2019-06-10T16:39:56.100Z,4.50
2019-06-10T16:42:26.206Z,4.83
2019-06-10T16:44:56.410Z,5.03
2019-06-10T16:47:27.243Z,4.87
2019-06-10T16:49:56.958Z,4.42
2019-06-10T16:52:27.693Z,4.95
2019-06-10T16:54:58.002Z,4.70
2019-06-10T16:57:27.426Z,4.62
2019-06-10T16:59:56.695Z,4.65
2019-06-10T17:02:26.865Z,4.92
2019-06-10T17:04:58.488Z,4.70
2019-06-10T17:07:27.420Z,5.37
2019-06-10T17:09:56.731Z,7.03
2019-06-10T17:12:27.581Z,5.10
2019-06-10T17:14:57.042Z,4.85
2019-06-10T17:17:26.993Z,4.92
2019-06-10T17:19:57.360Z,4.65
2019-06-10T17:22:28.617Z,5.05
2019-06-10T17:24:57.820Z,5.10
2019-06-10T17:27:27.940Z,5.00
2019-06-10T17:29:57.330Z,4.90
2019-06-10T17:32:27.173Z,4.78
2019-06-10T17:34:57.581Z,4.25
2019-06-10T17:37:28.648Z,4.60
2019-06-10T17:39:58.030Z,4.50
2019-06-10T17:42:30.690Z,4.65
2019-06-10T17:44:58.346Z,5.08
2019-06-10T17:47:28.160Z,4.08
2019-06-10T17:49:58.780Z,4.90
2019-06-10T17:52:28.197Z,4.47
2019-06-10T17:54:57.462Z,5.12
2019-06-10T17:57:28.295Z,4.22
2019-06-10T17:59:58.902Z,5.28
2019-06-10T18:02:29.132Z,4.80
2019-06-10T18:04:58.509Z,4.83
2019-06-10T18:07:27.819Z,5.12
2019-06-10T18:09:57.117Z,4.72
2019-06-10T18:12:26.418Z,5.30
2019-06-10T18:14:55.721Z,4.78
2019-06-10T18:17:25.881Z,4.47
2019-06-10T18:19:57.192Z,4.37
2019-06-10T18:22:26.534Z,4.83
2019-06-10T18:24:55.831Z,4.58
2019-06-10T18:27:25.165Z,4.83
2019-06-10T18:29:54.465Z,4.85
2019-06-10T18:32:23.797Z,4.80
2019-06-10T18:34:53.202Z,5.08
2019-06-10T18:37:22.846Z,5.67
2019-06-10T18:39:52.282Z,5.60
2019-06-10T18:42:23.514Z,5.95
2019-06-10T18:44:52.636Z,5.42
2019-06-10T18:47:22.428Z,4.87
2019-06-10T18:49:52.714Z,5.22
2019-06-10T18:52:23.336Z,6.20
2019-06-10T18:54:52.986Z,5.62
2019-06-10T18:57:22.516Z,5.78
2019-06-10T18:59:52.300Z,5.55
2019-06-10T19:02:22.634Z,5.47
2019-06-10T19:04:54.633Z,5.58
2019-06-10T19:07:23.615Z,6.30
2019-06-10T19:09:53.026Z,6.20
2019-06-10T19:12:22.563Z,6.08
2019-06-10T19:14:52.355Z,5.58
2019-06-10T19:17:23.138Z,6.20
2019-06-10T19:19:53.578Z,5.50
2019-06-10T19:22:22.917Z,5.55
2019-06-10T19:24:52.985Z,6.33
2019-06-10T19:27:23.803Z,6.35
2019-06-10T19:29:54.946Z,7.03
2019-06-10T19:32:24.372Z,6.53
2019-06-10T19:34:53.760Z,6.65
2019-06-10T19:37:23.081Z,7.05
2019-06-10T19:39:54.093Z,6.00
2019-06-10T19:42:23.577Z,6.67
2019-06-10T19:44:52.886Z,6.45
2019-06-10T19:47:23.564Z,6.30
2019-06-10T19:49:53.949Z,6.20
2019-06-10T19:52:23.560Z,6.50
2019-06-10T19:54:54.082Z,6.05
2019-06-10T19:57:23.389Z,6.20
2019-06-10T20:00:07.790Z,7.05
2019-06-10T20:02:24.698Z,6.95
2019-06-10T20:04:54.003Z,6.55
2019-06-10T20:07:23.306Z,6.17
2019-06-10T20:09:52.621Z,7.33
2019-06-10T20:12:22.947Z,6.90
2019-06-10T20:14:52.857Z,7.90
2019-06-10T20:17:22.787Z,7.10
2019-06-10T20:19:52.227Z,7.55
2019-06-10T20:22:22.803Z,7.28
2019-06-10T20:24:53.405Z,8.55
2019-06-10T20:27:22.848Z,9.60
2019-06-10T20:30:04.543Z,8.98
2019-06-10T20:32:23.143Z,8.03
2019-06-10T20:34:52.982Z,7.55
2019-06-10T20:37:22.646Z,7.90
2019-06-10T20:39:53.933Z,8.00
2019-06-10T20:42:23.216Z,7.83
2019-06-10T20:44:53.651Z,6.55
2019-06-10T20:47:23.228Z,5.53
2019-06-10T20:49:55.988Z,5.40
2019-06-10T20:52:23.545Z,6.13
2019-06-10T20:54:53.323Z,9.53
2019-06-10T20:57:22.763Z,9.27
2019-06-10T20:59:53.139Z,8.67
2019-06-10T21:02:22.667Z,7.13
2019-06-10T21:04:53.164Z,6.33
2019-06-10T21:07:24.124Z,6.47
2019-06-10T21:09:54.387Z,4.03
2019-06-10T21:12:23.693Z,3.23
2019-06-10T21:14:53.221Z,3.20
2019-06-10T21:17:22.932Z,2.83
2019-06-10T21:19:53.764Z,2.97
2019-06-10T21:22:24.138Z,3.23
2019-06-10T21:24:53.705Z,3.20
2019-06-10T21:27:24.003Z,2.77
2019-06-10T21:29:54.772Z,3.33
2019-06-10T21:32:24.343Z,3.40
2019-06-10T21:34:53.971Z,3.63
2019-06-10T21:37:23.458Z,3.43
2019-06-10T21:39:55.382Z,3.63
2019-06-10T21:42:23.801Z,3.30
2019-06-10T21:44:53.138Z,3.03
2019-06-10T21:47:23.441Z,3.60
2019-06-10T21:49:54.897Z,3.40
2019-06-10T21:52:24.511Z,3.90
2019-06-10T21:54:53.822Z,3.73
2019-06-10T21:57:23.596Z,3.50
2019-06-10T21:59:54.975Z,2.93
2019-06-10T22:02:23.977Z,3.47
2019-06-10T22:04:55.385Z,3.47
2019-06-10T22:07:24.287Z,3.53
2019-06-10T22:09:55.762Z,3.53
2019-06-10T22:12:24.597Z,3.33
2019-06-10T22:14:54.642Z,4.27
2019-06-10T22:17:24.103Z,3.20
2019-06-10T22:19:55.090Z,4.63
2019-06-10T22:22:24.480Z,4.37
2019-06-10T22:24:55.160Z,5.10
2019-06-10T22:27:24.804Z,5.60
2019-06-10T22:29:55.722Z,4.73
2019-06-10T22:32:25.121Z,5.23
2019-06-10T22:34:57.008Z,4.87
2019-06-10T22:37:26.493Z,4.90
2019-06-10T22:39:56.652Z,4.97
2019-06-10T22:42:26.879Z,4.83
2019-06-10T22:44:58.073Z,5.17
2019-06-10T22:47:27.197Z,4.87
2019-06-10T22:49:58.458Z,5.27
2019-06-10T22:52:28.594Z,4.97
2019-06-10T22:54:58.612Z,4.60
2019-06-10T22:57:28.185Z,4.07
2019-06-10T22:59:57.891Z,4.30
2019-06-10T23:02:28.581Z,4.60
2019-06-10T23:04:59.900Z,5.90
2019-06-10T23:07:28.888Z,5.50
2019-06-10T23:09:59.083Z,5.67
2019-06-10T23:12:28.489Z,6.57
2019-06-10T23:14:59.222Z,6.60
2019-06-10T23:17:28.776Z,5.97
2019-06-10T23:19:59.610Z,6.20
2019-06-10T23:22:28.971Z,5.63
2019-06-10T23:24:58.277Z,6.70
2019-06-10T23:27:28.700Z,5.73
2019-06-10T23:29:58.735Z,5.97
2019-06-10T23:32:29.019Z,6.47
2019-06-10T23:35:01.015Z,6.23
2019-06-10T23:37:29.365Z,6.23
2019-06-10T23:39:59.040Z,5.40
2019-06-10T23:42:28.392Z,5.90
2019-06-10T23:44:57.701Z,5.60
2019-06-10T23:47:27.098Z,5.73
2019-06-10T23:49:57.632Z,5.90
2019-06-10T23:52:27.529Z,5.60
2019-06-10T23:54:57.943Z,5.97
2019-06-10T23:57:27.376Z,5.23
2019-06-10T23:59:56.941Z,5.10
